Time;durP1;ratioP1;P1;durP2;ratioP2;P2;SDS_P1;SDS_P2;PMS_P1;PMS_P2;Temp;Humidity;BMP_temperature;BMP_pressure;BME280_temperature;BME280_humidity;BME280_pressure;Samples;Min_cycle;Max_cycle;Signal;HPM_P1;HPM_P2
2023/11/21 00:00:11;;;;;;;0.50;0.40;;;;;;;5.59;100.00;97560.10;107478;1276;75836;-89
2023/11/21 00:02:41;;;;;;;1.00;0.30;;;;;;;5.61;100.00;97558.95;107530;1275;71953;-89
2023/11/21 00:05:13;;;;;;;0.40;0.30;;;;;;;5.62;100.00;97556.72;107507;1275;59640;-88
2023/11/21 00:07:41;;;;;;;0.60;0.50;;;;;;;5.64;100.00;97555.54;107329;1279;59618;-88
2023/11/21 00:10:10;;;;;;;0.40;0.40;;;;;;;5.66;100.00;97551.00;107311;1276;73974;-88
2023/11/21 00:12:57;;;;;;;0.20;0.20;;;;;;;5.68;100.00;97548.90;107103;1276;74970;-89
2023/11/21 00:15:25;;;;;;;0.60;0.60;;;;;;;5.70;100.00;97545.94;107103;1274;71443;-88
2023/11/21 00:17:52;;;;;;;0.70;0.50;;;;;;;5.71;100.00;97551.70;107281;1276;59301;-89
2023/11/21 00:20:19;;;;;;;0.80;0.60;;;;;;;5.73;100.00;97552.64;107500;1276;59458;-88
2023/11/21 00:22:47;;;;;;;1.40;0.40;;;;;;;5.77;100.00;97550.63;107364;1276;75137;-89
2023/11/21 00:25:16;;;;;;;0.20;0.20;;;;;;;5.80;100.00;97548.67;107371;1277;73083;-89
2023/11/21 00:27:44;;;;;;;0.40;0.40;;;;;;;5.83;100.00;97550.64;107468;1276;71933;-89
2023/11/21 00:30:12;;;;;;;0.40;0.40;;;;;;;5.85;100.00;97552.80;107530;1275;59929;-89
2023/11/21 00:32:39;;;;;;;0.30;0.30;;;;;;;5.86;100.00;97554.33;107543;1275;60465;-90
2023/11/21 00:35:07;;;;;;;0.40;0.40;;;;;;;5.88;100.00;97560.95;107523;1276;73530;-89
2023/11/21 00:37:34;;;;;;;0.30;0.20;;;;;;;5.89;100.00;97560.36;107503;1275;76132;-89
2023/11/21 00:40:07;;;;;;;0.50;0.30;;;;;;;5.91;100.00;97561.52;107098;1277;72874;-88
2023/11/21 00:42:34;;;;;;;0.40;0.40;;;;;;;5.92;100.00;97559.65;107298;1275;60874;-89
2023/11/21 00:45:03;;;;;;;0.60;0.40;;;;;;;5.93;100.00;97562.93;107571;1274;60143;-88
2023/11/21 00:47:33;;;;;;;0.30;0.20;;;;;;;5.95;100.00;97558.91;107461;1275;74405;-88
2023/11/21 00:50:00;;;;;;;0.60;0.50;;;;;;;5.96;100.00;97560.30;107623;1276;75405;-88
2023/11/21 00:52:27;;;;;;;0.50;0.50;;;;;;;5.98;100.00;97566.02;107869;1275;71810;-89
2023/11/21 00:54:55;;;;;;;1.60;0.90;;;;;;;5.99;100.00;97565.81;107952;1275;59275;-87
2023/11/21 00:57:22;;;;;;;0.80;0.80;;;;;;;6.00;100.00;97566.80;107671;1276;60099;-88
2023/11/21 00:59:49;;;;;;;1.70;0.90;;;;;;;6.00;100.00;97562.86;107954;1275;73835;-89
2023/11/21 01:02:16;;;;;;;1.50;0.90;;;;;;;6.02;100.00;97561.18;107627;1276;73844;-88
2023/11/21 01:04:44;;;;;;;1.00;0.90;;;;;;;6.02;100.00;97563.09;107870;1276;73490;-89
2023/11/21 01:07:11;;;;;;;0.40;0.40;;;;;;;6.04;100.00;97563.20;107264;1275;59988;-89
2023/11/21 01:09:38;;;;;;;0.50;0.40;;;;;;;6.04;100.00;97563.67;107556;1275;61409;-88
2023/11/21 01:12:06;;;;;;;0.40;0.40;;;;;;;6.05;100.00;97569.30;107615;1275;74446;-88
2023/11/21 01:14:33;;;;;;;0.50;0.50;;;;;;;6.06;100.00;97563.04;107452;1276;74142;-88
2023/11/21 01:17:00;;;;;;;0.40;0.40;;;;;;;6.06;100.00;97562.48;107786;1276;71224;-88
2023/11/21 01:19:28;;;;;;;0.40;0.40;;;;;;;6.07;100.00;97556.77;107373;1276;61134;-89
2023/11/21 01:21:58;;;;;;;1.30;1.20;;;;;;;6.08;100.00;97554.73;107374;1277;60310;-89
2023/11/21 01:24:25;;;;;;;2.60;2.10;;;;;;;6.09;100.00;97553.78;107427;1276;74494;-89
2023/11/21 01:26:52;;;;;;;3.60;2.30;;;;;;;6.10;100.00;97552.64;107572;1276;75299;-88
2023/11/21 01:29:19;;;;;;;1.30;1.20;;;;;;;6.12;100.00;97548.63;107609;1275;71353;-90
2023/11/21 01:31:47;;;;;;;1.50;1.40;;;;;;;6.12;100.00;97550.92;107862;1276;59929;-88
2023/11/21 01:34:14;;;;;;;1.20;1.10;;;;;;;6.12;100.00;97549.84;107573;1276;58957;-87
2023/11/21 01:36:41;;;;;;;1.40;1.10;;;;;;;6.13;100.00;97550.88;107655;1275;75082;-89
2023/11/21 01:39:08;;;;;;;1.10;1.00;;;;;;;6.12;100.00;97553.92;108019;1275;75002;-89
2023/11/21 01:41:35;;;;;;;1.10;1.00;;;;;;;6.12;100.00;97550.02;107973;1276;71166;-88
2023/11/21 01:44:02;;;;;;;1.10;1.00;;;;;;;6.12;100.00;97553.91;107581;1276;60877;-88
2023/11/21 01:46:31;;;;;;;1.60;1.30;;;;;;;6.12;100.00;97552.34;107958;1276;59992;-89
2023/11/21 01:48:59;;;;;;;1.20;1.10;;;;;;;6.13;100.00;97547.80;107770;1278;72527;-90
2023/11/21 01:51:26;;;;;;;1.10;1.00;;;;;;;6.13;100.00;97545.33;107925;1277;73091;-89
2023/11/21 01:53:55;;;;;;;1.30;1.10;;;;;;;6.15;100.00;97550.03;107890;1276;70773;-89
2023/11/21 01:56:22;;;;;;;1.40;1.30;;;;;;;6.15;100.00;97547.55;107913;1275;60102;-89
2023/11/21 01:58:49;;;;;;;1.20;1.10;;;;;;;6.15;100.00;97545.92;107679;1275;59258;-89
2023/11/21 02:01:18;;;;;;;0.80;0.80;;;;;;;6.15;100.00;97550.55;107373;1276;73243;-88
2023/11/21 02:03:49;;;;;;;1.00;0.90;;;;;;;6.16;100.00;97551.05;107343;1276;74473;-89
2023/11/21 02:06:18;;;;;;;1.40;1.10;;;;;;;6.16;100.00;97545.50;107371;1276;71458;-89
2023/11/21 02:08:45;;;;;;;0.70;0.70;;;;;;;6.18;100.00;97546.14;107244;1276;61210;-89
2023/11/21 02:11:15;;;;;;;0.50;0.50;;;;;;;6.18;100.00;97546.64;107605;1276;59309;-89
2023/11/21 02:13:43;;;;;;;0.50;0.50;;;;;;;6.18;100.00;97547.34;107651;1276;75291;-87
2023/11/21 02:16:12;;;;;;;0.70;0.60;;;;;;;6.20;100.00;97551.00;107602;1275;72650;-89
2023/11/21 02:18:40;;;;;;;0.80;0.80;;;;;;;6.20;100.00;97545.81;107163;1276;72646;-89
2023/11/21 02:21:07;;;;;;;0.80;0.60;;;;;;;6.20;100.00;97548.10;107333;1276;60368;-88
2023/11/21 02:23:34;;;;;;;0.80;0.70;;;;;;;6.21;100.00;97548.77;107406;1276;60297;-89
2023/11/21 02:26:04;;;;;;;0.80;0.80;;;;;;;6.22;100.00;97550.47;107493;1275;74585;-90
2023/11/21 02:28:33;;;;;;;2.60;0.80;;;;;;;6.23;100.00;97554.13;107552;1276;73996;-89
2023/11/21 02:31:02;;;;;;;1.00;0.90;;;;;;;6.24;100.00;97556.19;107309;1276;74044;-89
2023/11/21 02:33:33;;;;;;;0.90;0.80;;;;;;;6.25;100.00;97553.46;107601;1276;61189;-89
2023/11/21 02:36:02;;;;;;;2.40;1.20;;;;;;;6.26;100.00;97553.95;107666;1276;59747;-88
2023/11/21 02:38:30;;;;;;;1.50;1.40;;;;;;;6.27;100.00;97552.30;107747;1276;73438;-88
2023/11/21 02:40:58;;;;;;;1.70;1.60;;;;;;;6.28;100.00;97559.69;107450;1276;73863;-89
2023/11/21 02:43:25;;;;;;;1.60;1.50;;;;;;;6.27;100.00;97556.16;107112;1276;72830;-89
2023/11/21 02:45:52;;;;;;;1.50;1.40;;;;;;;6.28;100.00;97555.95;107858;1276;61960;-89
2023/11/21 02:48:25;;;;;;;1.40;1.30;;;;;;;6.29;100.00;97561.36;107993;1275;58911;-89
2023/11/21 02:50:53;;;;;;;1.70;1.60;;;;;;;6.30;100.00;97560.45;107474;1275;73550;-88
2023/11/21 02:53:26;;;;;;;1.90;1.30;;;;;;;6.30;100.00;97559.70;107995;1275;73144;-88
2023/11/21 02:55:53;;;;;;;1.60;1.50;;;;;;;6.31;100.00;97563.02;107725;1276;71655;-89
2023/11/21 02:58:21;;;;;;;1.70;1.60;;;;;;;6.31;100.00;97560.86;107665;1276;59703;-89
2023/11/21 03:00:48;;;;;;;1.70;1.60;;;;;;;6.32;100.00;97562.98;107261;1276;60381;-89
2023/11/21 03:03:15;;;;;;;1.80;1.70;;;;;;;6.32;100.00;97564.42;107529;1275;75794;-90
2023/11/21 03:05:42;;;;;;;2.10;1.90;;;;;;;6.32;100.00;97567.55;107301;1276;75011;-89
2023/11/21 03:08:10;;;;;;;1.90;1.80;;;;;;;6.32;100.00;97565.27;107520;1275;72726;-90
2023/11/21 03:10:37;;;;;;;2.80;2.60;;;;;;;6.32;100.00;97567.25;107540;1276;62185;-89
2023/11/21 03:13:05;;;;;;;2.50;2.30;;;;;;;6.31;100.00;97565.70;107527;1276;61292;-89
2023/11/21 03:15:32;;;;;;;3.00;2.20;;;;;;;6.30;100.00;97565.71;107695;1276;75631;-89
2023/11/21 03:18:00;;;;;;;2.40;2.20;;;;;;;6.30;100.00;97570.75;107674;1274;74964;-87
2023/11/21 03:20:27;;;;;;;2.30;2.00;;;;;;;6.29;100.00;97567.77;108012;1274;71196;-88
2023/11/21 03:22:54;;;;;;;2.40;2.20;;;;;;;6.29;100.00;97571.19;107711;1274;59911;-88
2023/11/21 03:25:23;;;;;;;2.90;2.60;;;;;;;6.28;100.00;97571.23;108009;1274;59066;-89
2023/11/21 03:27:53;;;;;;;2.60;2.40;;;;;;;6.27;100.00;97570.94;107640;1274;73112;-89
2023/11/21 03:30:21;;;;;;;2.60;2.40;;;;;;;6.26;100.00;97568.67;107624;1274;74268;-88
2023/11/21 03:32:48;;;;;;;2.20;2.00;;;;;;;6.25;100.00;97573.17;107548;1275;71643;-89
2023/11/21 03:35:15;;;;;;;3.00;2.40;;;;;;;6.25;100.00;97576.09;107565;1276;61140;-89
2023/11/21 03:37:43;;;;;;;4.50;4.10;;;;;;;6.23;100.00;97572.44;107182;1275;59156;-90
2023/11/21 03:40:12;;;;;;;4.70;4.20;;;;;;;6.22;100.00;97576.77;107490;1277;133039;-89
2023/11/21 03:42:40;;;;;;;22.20;14.30;;;;;;;6.22;100.00;97576.11;107502;1277;74238;-89
2023/11/21 03:45:08;;;;;;;47.00;26.20;;;;;;;6.21;100.00;97578.28;107646;1276;71698;-89
2023/11/21 03:47:36;;;;;;;12.30;9.20;;;;;;;6.20;100.00;97578.34;107977;1275;60880;-89
2023/11/21 03:50:03;;;;;;;3.80;3.40;;;;;;;6.19;100.00;97581.41;107683;1275;58656;-88
2023/11/21 03:52:30;;;;;;;12.10;9.90;;;;;;;6.18;100.00;97583.84;107894;1275;74121;-86
2023/11/21 03:54:59;;;;;;;11.60;8.80;;;;;;;6.17;100.00;97581.73;107656;1275;73223;-88
2023/11/21 03:57:27;;;;;;;11.20;10.00;;;;;;;6.16;100.00;97582.46;107962;1276;71408;-89
2023/11/21 03:59:54;;;;;;;13.60;9.00;;;;;;;6.15;100.00;97581.10;107965;1275;60971;-89
2023/11/21 04:02:21;;;;;;;3.30;3.00;;;;;;;6.15;100.00;97585.36;107513;1276;59137;-89
2023/11/21 04:04:48;;;;;;;4.40;2.90;;;;;;;6.14;100.00;97583.98;108002;1275;72981;-88
2023/11/21 04:07:16;;;;;;;3.70;3.30;;;;;;;6.14;100.00;97580.81;107958;1276;72962;-89
2023/11/21 04:09:43;;;;;;;3.50;3.20;;;;;;;6.14;100.00;97582.25;107637;1275;72070;-89
2023/11/21 04:12:10;;;;;;;3.50;3.20;;;;;;;6.13;100.00;97585.51;107493;1276;61388;-88
2023/11/21 04:14:38;;;;;;;3.00;2.50;;;;;;;6.13;100.00;97585.86;107279;1275;60142;-88
2023/11/21 04:17:05;;;;;;;2.70;2.50;;;;;;;6.13;100.00;97581.95;107562;1276;73447;-89
2023/11/21 04:19:32;;;;;;;2.70;2.40;;;;;;;6.12;100.00;97582.17;107339;1276;74334;-88
2023/11/21 04:21:59;;;;;;;2.10;1.90;;;;;;;6.12;100.00;97577.92;107647;1275;72602;-88
2023/11/21 04:24:26;;;;;;;2.40;2.20;;;;;;;6.12;100.00;97582.93;107649;1277;60789;-88
2023/11/21 04:26:54;;;;;;;2.20;1.80;;;;;;;6.11;100.00;97587.23;107560;1276;59551;-88
2023/11/21 04:29:21;;;;;;;1.40;1.30;;;;;;;6.10;100.00;97589.04;107690;1276;73716;-88
2023/11/21 04:31:49;;;;;;;1.50;1.30;;;;;;;6.10;100.00;97591.21;107647;1276;73154;-89
2023/11/21 04:34:16;;;;;;;1.80;1.30;;;;;;;6.10;100.00;97592.31;107744;1275;73448;-90
2023/11/21 04:36:43;;;;;;;1.40;1.10;;;;;;;6.08;100.00;97590.43;107274;1276;61111;-89
2023/11/21 04:39:11;;;;;;;1.10;1.00;;;;;;;6.08;100.00;97589.05;107363;1276;60309;-89
2023/11/21 04:41:42;;;;;;;1.20;1.20;;;;;;;6.08;100.00;97590.84;107704;1276;74766;-88
2023/11/21 04:44:09;;;;;;;1.80;1.70;;;;;;;6.07;100.00;97595.88;107381;1276;73674;-89
2023/11/21 04:46:36;;;;;;;1.40;1.30;;;;;;;6.06;100.00;97596.46;107346;1275;72745;-88
2023/11/21 04:49:04;;;;;;;1.50;1.30;;;;;;;6.06;100.00;97594.66;107605;1276;61000;-88
2023/11/21 04:51:32;;;;;;;1.70;1.20;;;;;;;6.06;100.00;97593.98;107597;1276;60138;-90
2023/11/21 04:53:59;;;;;;;1.00;0.90;;;;;;;6.05;100.00;97597.56;107389;1277;74478;-89
2023/11/21 04:56:26;;;;;;;1.40;1.10;;;;;;;6.05;100.00;97599.88;107386;1275;72241;-89
2023/11/21 04:58:53;;;;;;;3.60;1.80;;;;;;;6.04;100.00;97601.02;107568;1276;72753;-89
2023/11/21 05:01:21;;;;;;;3.20;2.00;;;;;;;6.04;100.00;97605.85;107554;1276;61733;-90
2023/11/21 05:03:48;;;;;;;3.10;1.80;;;;;;;6.04;100.00;97610.30;107551;1275;61221;-90
2023/11/21 05:06:16;;;;;;;3.50;2.20;;;;;;;6.03;100.00;97608.88;107437;1276;74669;-89
2023/11/21 05:08:43;;;;;;;4.30;1.70;;;;;;;6.03;100.00;97610.49;107252;1276;74253;-89
2023/11/21 05:11:10;;;;;;;3.20;1.70;;;;;;;6.03;100.00;97607.51;107265;1276;72711;-90
2023/11/21 05:13:38;;;;;;;1.60;1.20;;;;;;;6.03;100.00;97611.77;107524;1276;61226;-90
2023/11/21 05:16:07;;;;;;;2.00;1.60;;;;;;;6.02;100.00;97613.80;107275;1277;59566;-89
2023/11/21 05:18:34;;;;;;;1.80;1.00;;;;;;;6.01;100.00;97611.88;107552;1277;75110;-88
2023/11/21 05:21:02;;;;;;;4.10;2.20;;;;;;;6.00;100.00;97613.00;107414;1276;72917;-89
2023/11/21 05:23:29;;;;;;;3.40;2.20;;;;;;;5.99;100.00;97612.36;107527;1275;72639;-90
2023/11/21 05:25:57;;;;;;;2.20;1.90;;;;;;;5.99;100.00;97619.69;107372;1274;61027;-90
2023/11/21 05:28:24;;;;;;;2.30;1.70;;;;;;;5.99;100.00;97620.92;107351;1278;60487;-89
2023/11/21 05:30:51;;;;;;;2.50;2.00;;;;;;;5.99;100.00;97622.52;107531;1276;73385;-87
2023/11/21 05:33:33;;;;;;;2.70;2.40;;;;;;;5.98;100.00;97621.48;107530;1277;72965;-89
2023/11/21 05:36:00;;;;;;;2.60;2.40;;;;;;;5.98;100.00;97620.98;107548;1275;73615;-89
2023/11/21 05:38:27;;;;;;;5.50;5.00;;;;;;;5.98;100.00;97624.70;107311;1277;60324;-89
2023/11/21 05:40:54;;;;;;;6.60;6.00;;;;;;;5.98;100.00;97626.84;107557;1275;61070;-89
2023/11/21 05:43:21;;;;;;;8.20;6.20;;;;;;;5.98;100.00;97622.94;107759;1276;73446;-88
2023/11/21 05:45:49;;;;;;;8.90;8.10;;;;;;;5.98;100.00;97624.02;107955;1277;74561;-88
2023/11/21 05:48:16;;;;;;;9.50;8.60;;;;;;;5.98;100.00;97629.33;107462;1276;71383;-89
2023/11/21 05:50:44;;;;;;;8.70;7.90;;;;;;;5.98;100.00;97629.47;107535;1275;61215;-88
2023/11/21 05:53:11;;;;;;;5.50;5.00;;;;;;;5.98;100.00;97631.44;107522;1277;59139;-89
2023/11/21 05:55:39;;;;;;;3.90;3.40;;;;;;;5.99;100.00;97632.65;107900;1276;73483;-88
2023/11/21 05:58:07;;;;;;;6.30;4.50;;;;;;;5.99;100.00;97631.95;107617;1276;73376;-89
2023/11/21 06:00:34;;;;;;;7.20;5.10;;;;;;;5.98;100.00;97631.27;107251;1277;72330;-89
2023/11/21 06:03:03;;;;;;;4.80;4.30;;;;;;;5.98;100.00;97635.87;106981;1277;59742;-88
2023/11/21 06:05:33;;;;;;;6.00;4.20;;;;;;;5.99;100.00;97636.55;107137;1276;60287;-88
2023/11/21 06:08:00;;;;;;;3.30;3.00;;;;;;;5.99;100.00;97639.20;107447;1276;75819;-90
2023/11/21 06:10:28;;;;;;;3.40;3.10;;;;;;;6.00;100.00;97640.40;107302;1277;74546;-89
2023/11/21 06:12:57;;;;;;;5.00;4.40;;;;;;;6.00;100.00;97646.59;107398;1275;74181;-89
2023/11/21 06:15:29;;;;;;;5.00;2.70;;;;;;;6.01;100.00;97640.66;107367;1275;61572;-89
2023/11/21 06:17:57;;;;;;;5.70;4.50;;;;;;;6.02;100.00;97643.27;107462;1277;59647;-89
2023/11/21 06:20:26;;;;;;;5.30;3.60;;;;;;;6.03;100.00;97647.48;107558;1275;74235;-89
2023/11/21 06:22:56;;;;;;;6.80;5.20;;;;;;;6.03;100.00;97646.75;107216;1276;72922;-88
2023/11/21 06:25:23;;;;;;;7.70;6.70;;;;;;;6.04;100.00;97644.03;107392;1275;73223;-88
2023/11/21 06:27:51;;;;;;;4.90;4.20;;;;;;;6.06;100.00;97646.05;107227;1276;59996;-89
2023/11/21 06:30:19;;;;;;;5.30;3.50;;;;;;;6.06;100.00;97647.97;107432;1276;60086;-87
2023/11/21 06:32:47;;;;;;;4.20;3.00;;;;;;;6.08;100.00;97644.86;107508;1275;74583;-89
2023/11/21 06:35:15;;;;;;;6.80;3.70;;;;;;;6.08;100.00;97643.27;107368;1276;73452;-88
2023/11/21 06:37:47;;;;;;;4.60;3.00;;;;;;;6.09;100.00;97646.20;107286;1276;73077;-88
2023/11/21 06:40:33;;;;;;;5.10;2.60;;;;;;;6.10;100.00;97649.48;107217;1275;60022;-88
2023/11/21 06:43:02;;;;;;;2.20;2.00;;;;;;;6.12;100.00;97651.70;107204;1276;61227;-85
2023/11/21 06:45:29;;;;;;;6.10;5.50;;;;;;;6.14;100.00;97654.59;107139;1277;74112;-84
2023/11/21 06:47:56;;;;;;;8.20;7.40;;;;;;;6.16;100.00;97656.44;107497;1274;76015;-84
2023/11/21 06:50:23;;;;;;;11.70;9.30;;;;;;;6.18;100.00;97654.89;107060;1277;71432;-82
2023/11/21 06:52:50;;;;;;;7.10;5.10;;;;;;;6.21;100.00;97660.08;107349;1277;60052;-83
2023/11/21 06:55:20;;;;;;;3.60;3.10;;;;;;;6.23;100.00;97660.46;107012;1276;61159;-82
2023/11/21 06:57:48;;;;;;;3.80;2.50;;;;;;;6.26;100.00;97664.20;107060;1274;73654;-80
2023/11/21 07:00:17;;;;;;;3.40;2.80;;;;;;;6.28;100.00;97670.42;107331;1276;74053;-81
2023/11/21 07:02:45;;;;;;;5.40;4.00;;;;;;;6.31;100.00;97669.39;107027;1275;72639;-81
2023/11/21 07:05:14;;;;;;;8.80;6.40;;;;;;;6.34;100.00;97676.14;107346;1276;59727;-80
2023/11/21 07:07:41;;;;;;;7.10;5.70;;;;;;;6.36;100.00;97675.99;107327;1274;59500;-80
2023/11/21 07:10:08;;;;;;;6.10;5.30;;;;;;;6.39;100.00;97680.57;107468;1274;74337;-81
2023/11/21 07:12:36;;;;;;;4.60;4.20;;;;;;;6.41;100.00;97677.05;107731;1275;74377;-82
2023/11/21 07:15:07;;;;;;;4.10;3.70;;;;;;;6.44;100.00;97678.45;107538;1276;70286;-82
2023/11/21 07:17:37;;;;;;;3.70;3.30;;;;;;;6.47;100.00;97675.96;107134;1276;59650;-81
2023/11/21 07:20:08;;;;;;;2.60;2.10;;;;;;;6.49;100.00;97680.83;107436;1274;60249;-83
2023/11/21 07:22:35;;;;;;;3.90;3.40;;;;;;;6.51;100.00;97676.78;107548;1275;73767;-82
2023/11/21 07:25:04;;;;;;;2.10;1.90;;;;;;;6.53;100.00;97678.27;107420;1279;73328;-82
2023/11/21 07:27:37;;;;;;;2.20;1.90;;;;;;;6.55;100.00;97682.61;107333;1276;72862;-85
2023/11/21 07:30:09;;;;;;;2.30;2.10;;;;;;;6.57;100.00;97684.79;107214;1276;59887;-84
2023/11/21 07:32:39;;;;;;;2.40;2.10;;;;;;;6.60;100.00;97687.63;107295;1276;59663;-84
2023/11/21 07:35:08;;;;;;;2.10;1.90;;;;;;;6.62;100.00;97686.07;107444;1276;73283;-84
2023/11/21 07:37:35;;;;;;;2.00;1.70;;;;;;;6.64;100.00;97688.60;107358;1277;75991;-84
2023/11/21 07:40:03;;;;;;;1.90;1.30;;;;;;;6.67;100.00;97692.16;107078;1276;73306;-84
2023/11/21 07:42:30;;;;;;;1.50;1.40;;;;;;;6.69;100.00;97691.11;107335;1277;60682;-83
2023/11/21 07:44:57;;;;;;;1.60;1.20;;;;;;;6.72;100.00;97693.98;107269;1276;61416;-82
2023/11/21 07:47:27;;;;;;;1.90;1.20;;;;;;;6.72;100.00;97691.09;107079;1276;73530;-82
2023/11/21 07:49:55;;;;;;;1.70;1.60;;;;;;;6.74;100.00;97696.64;107300;1274;75622;-83
2023/11/21 07:52:23;;;;;;;6.20;2.00;;;;;;;6.77;100.00;97699.31;107260;1276;74021;-82
2023/11/21 07:54:51;;;;;;;1.80;1.50;;;;;;;6.78;100.00;97697.45;107454;1276;61433;-83
2023/11/21 07:57:18;;;;;;;4.30;3.60;;;;;;;6.80;100.00;97699.80;107582;1276;59338;-83
2023/11/21 07:59:45;;;;;;;2.20;1.90;;;;;;;6.82;100.00;97703.93;107485;1276;73455;-83
2023/11/21 08:02:12;;;;;;;2.30;1.80;;;;;;;6.83;100.00;97703.16;107427;1277;73060;-86
2023/11/21 08:04:44;;;;;;;2.60;1.90;;;;;;;6.84;100.00;97705.95;106865;1277;71888;-85
2023/11/21 08:07:12;;;;;;;1.70;1.50;;;;;;;6.85;100.00;97702.13;107157;1277;61036;-82
2023/11/21 08:09:39;;;;;;;2.70;1.70;;;;;;;6.86;100.00;97706.54;107038;1276;61524;-83
2023/11/21 08:12:07;;;;;;;2.00;1.50;;;;;;;6.87;100.00;97705.45;107211;1276;74896;-82
2023/11/21 08:14:39;;;;;;;2.30;2.00;;;;;;;6.87;100.00;97705.95;107050;1282;73847;-83
2023/11/21 08:17:06;;;;;;;4.00;3.10;;;;;;;6.88;100.00;97708.52;107279;1277;71762;-82
2023/11/21 08:19:34;;;;;;;4.80;3.00;;;;;;;6.88;100.00;97709.45;106999;1277;62159;-82
2023/11/21 08:22:01;;;;;;;10.70;9.10;;;;;;;6.89;100.00;97713.65;107428;1275;59502;-83
2023/11/21 08:24:28;;;;;;;6.20;5.00;;;;;;;6.90;100.00;97712.74;107338;1279;74831;-81
2023/11/21 08:26:55;;;;;;;7.80;6.60;;;;;;;6.91;100.00;97709.11;107331;1276;75023;-81
2023/11/21 08:29:23;;;;;;;9.70;6.30;;;;;;;6.91;100.00;97710.34;106993;1277;74851;-82
2023/11/21 08:31:50;;;;;;;9.30;6.70;;;;;;;6.92;100.00;97706.22;107133;1276;61487;-84
2023/11/21 08:34:18;;;;;;;7.70;4.40;;;;;;;6.93;100.00;97715.02;107340;1276;59711;-82
2023/11/21 08:36:45;;;;;;;5.90;4.10;;;;;;;6.94;100.00;97713.73;107340;1278;73764;-83
2023/11/21 08:39:13;;;;;;;5.40;3.90;;;;;;;6.95;100.00;97713.27;107241;1276;73110;-83
2023/11/21 08:41:41;;;;;;;3.70;3.00;;;;;;;6.98;100.00;97715.95;107342;1276;71170;-84
2023/11/21 08:44:08;;;;;;;6.10;3.90;;;;;;;6.99;100.00;97716.70;107480;1276;61136;-84
2023/11/21 08:46:36;;;;;;;6.10;4.00;;;;;;;7.02;100.00;97714.22;106944;1276;60018;-83
2023/11/21 08:49:04;;;;;;;4.80;4.00;;;;;;;7.05;100.00;97712.44;107025;1279;74736;-82
2023/11/21 08:51:31;;;;;;;4.40;3.60;;;;;;;7.08;100.00;97713.33;106859;1276;74330;-83
2023/11/21 08:54:00;;;;;;;4.60;4.10;;;;;;;7.11;100.00;97707.63;107136;1277;72970;-83
2023/11/21 08:56:32;;;;;;;12.00;7.20;;;;;;;7.14;100.00;97705.80;107078;1276;61148;-84
2023/11/21 08:59:03;;;;;;;9.30;7.70;;;;;;;7.17;100.00;97708.08;107502;1275;59967;-87
2023/11/21 09:01:31;;;;;;;6.70;4.70;;;;;;;7.20;100.00;97706.48;107193;1276;74774;-86
2023/11/21 09:04:11;;;;;;;9.20;6.70;;;;;;;7.22;100.00;97704.86;107355;1277;74369;-87
2023/11/21 09:06:42;;;;;;;;;;;;;;;7.26;100.00;97704.45;107221;1277;71531;-87
2023/11/21 09:09:10;;;;;;;8.20;5.50;;;;;;;7.28;100.00;97707.90;107245;1276;59735;-86
2023/11/21 09:11:39;;;;;;;6.90;5.80;;;;;;;7.30;100.00;97701.86;107216;1275;59873;-85
2023/11/21 09:14:06;;;;;;;7.60;5.50;;;;;;;7.33;100.00;97693.84;107154;1283;73656;-86
2023/11/21 09:16:34;;;;;;;7.60;5.60;;;;;;;7.35;100.00;97693.68;107401;1277;74086;-84
2023/11/21 09:19:05;;;;;;;8.20;6.70;;;;;;;7.38;100.00;97690.50;106950;1277;71392;-86
2023/11/21 09:21:34;;;;;;;9.50;6.20;;;;;;;7.40;100.00;97687.69;107389;1276;60441;-86
2023/11/21 09:24:02;;;;;;;5.50;4.10;;;;;;;7.43;100.00;97686.23;107424;1276;59738;-88
2023/11/21 09:26:30;;;;;;;3.70;2.90;;;;;;;7.46;100.00;97687.84;107246;1275;73462;-88
2023/11/21 09:28:57;;;;;;;3.80;3.40;;;;;;;7.48;100.00;97687.86;107351;1276;73894;-87
2023/11/21 09:31:27;;;;;;;5.50;4.50;;;;;;;7.50;100.00;97683.59;107328;1277;72562;-85
2023/11/21 09:33:54;;;;;;;4.90;3.80;;;;;;;7.54;100.00;97676.40;107317;1276;62086;-87
2023/11/21 09:36:26;;;;;;;4.20;3.20;;;;;;;7.58;100.00;97671.48;107469;1279;59759;-85
2023/11/21 09:38:55;;;;;;;3.10;2.70;;;;;;;7.61;100.00;97661.34;107245;1280;74873;-84
2023/11/21 09:41:34;;;;;;;4.10;3.50;;;;;;;7.64;100.00;97657.55;107402;1276;74129;-86
2023/11/21 09:44:02;;;;;;;2.60;2.40;;;;;;;7.69;100.00;97662.04;107272;1277;71501;-84
2023/11/21 09:46:30;;;;;;;2.60;2.40;;;;;;;7.72;100.00;97663.73;107028;1277;59861;-87
2023/11/21 09:48:58;;;;;;;4.60;2.90;;;;;;;7.76;100.00;97664.33;107147;1276;59831;-85
2023/11/21 09:51:25;;;;;;;2.90;2.20;;;;;;;7.82;100.00;97664.65;106914;1277;74117;-86
2023/11/21 09:53:53;;;;;;;2.50;2.20;;;;;;;7.88;100.00;97664.23;107241;1276;74280;-84
2023/11/21 09:56:23;;;;;;;2.10;1.90;;;;;;;7.94;100.00;97664.54;107442;1276;72660;-84
2023/11/21 09:58:52;;;;;;;2.40;2.10;;;;;;;8.01;100.00;97663.89;107360;1276;59691;-84
2023/11/21 10:01:21;;;;;;;2.30;2.10;;;;;;;8.08;100.00;97665.92;107439;1276;60247;-86
2023/11/21 10:03:48;;;;;;;3.30;2.40;;;;;;;8.14;100.00;97669.35;107361;1276;74320;-84
2023/11/21 10:06:15;;;;;;;3.90;3.00;;;;;;;8.21;100.00;97666.74;107143;1277;75525;-85
2023/11/21 10:08:43;;;;;;;3.80;3.20;;;;;;;8.26;100.00;97670.67;107359;1275;72892;-84
2023/11/21 10:11:21;;;;;;;3.80;2.70;;;;;;;8.31;100.00;97667.44;107319;1276;60717;-85
2023/11/21 10:13:48;;;;;;;2.60;2.40;;;;;;;8.36;100.00;97668.17;106864;1276;61311;-84
2023/11/21 10:16:16;;;;;;;2.80;2.60;;;;;;;8.40;100.00;97672.84;106952;1276;73319;-85
2023/11/21 10:18:44;;;;;;;3.40;2.20;;;;;;;8.45;100.00;97675.78;106840;1279;74269;-85
2023/11/21 10:21:11;;;;;;;2.70;2.10;;;;;;;8.49;100.00;97671.54;107297;1275;70629;-84
2023/11/21 10:23:39;;;;;;;1.80;1.70;;;;;;;8.53;100.00;97673.58;107030;1275;61547;-84
2023/11/21 10:26:07;;;;;;;2.10;1.90;;;;;;;8.57;100.00;97671.66;107092;1276;60171;-86
2023/11/21 10:28:57;;;;;;;2.30;2.10;;;;;;;8.62;100.00;97677.20;107092;1276;75594;-86
2023/11/21 10:31:28;;;;;;;2.90;2.30;;;;;;;8.66;100.00;97674.89;107280;1276;73638;-86
2023/11/21 10:34:12;;;;;;;2.10;2.00;;;;;;;8.73;100.00;97678.92;107513;1275;72356;-84
2023/11/21 10:36:39;;;;;;;2.00;1.30;;;;;;;8.80;100.00;97678.06;107366;1277;59950;-85
2023/11/21 10:39:07;;;;;;;1.90;1.70;;;;;;;8.86;100.00;97679.89;107290;1275;60142;-85
2023/11/21 10:41:35;;;;;;;1.60;1.10;;;;;;;8.93;100.00;97686.94;107337;1279;74895;-85
2023/11/21 10:44:09;;;;;;;1.50;1.40;;;;;;;8.96;100.00;97685.03;107130;1276;74837;-83
2023/11/21 10:46:37;;;;;;;1.60;1.00;;;;;;;9.01;100.00;97688.48;107262;1276;73497;-85
2023/11/21 10:49:06;;;;;;;1.30;1.10;;;;;;;9.04;99.98;97691.83;107423;1275;61564;-85
2023/11/21 10:51:33;;;;;;;3.70;1.00;;;;;;;9.06;99.90;97692.94;107185;1276;60222;-83
2023/11/21 10:54:00;;;;;;;0.80;0.60;;;;;;;9.09;99.19;97700.77;107388;1276;74997;-83
2023/11/21 10:56:30;;;;;;;1.20;1.10;;;;;;;9.09;97.58;97698.44;107218;1274;75021;-84
2023/11/21 10:58:57;;;;;;;0.80;0.80;;;;;;;9.09;97.64;97693.56;107091;1276;72668;-85
2023/11/21 11:01:25;;;;;;;1.90;1.00;;;;;;;9.10;97.45;97692.07;107140;1275;60502;-85
2023/11/21 11:03:54;;;;;;;2.10;1.50;;;;;;;9.11;97.67;97694.49;107156;1276;61528;-84
2023/11/21 11:06:22;;;;;;;2.60;2.30;;;;;;;9.11;98.31;97690.95;107054;1276;73766;-85
2023/11/21 11:08:49;;;;;;;2.00;1.30;;;;;;;9.10;98.39;97701.73;107074;1276;75083;-84
2023/11/21 11:11:18;;;;;;;1.00;0.90;;;;;;;9.08;98.19;97692.23;107075;1275;71843;-83
2023/11/21 11:13:45;;;;;;;1.20;1.10;;;;;;;9.08;97.97;97697.45;107478;1276;61026;-86
2023/11/21 11:16:17;;;;;;;1.50;1.20;;;;;;;9.05;97.43;97695.50;107199;1276;59884;-82
2023/11/21 11:18:47;;;;;;;1.80;1.70;;;;;;;9.01;97.49;97690.20;107173;1277;74161;-84
2023/11/21 11:21:20;;;;;;;2.90;1.90;;;;;;;8.98;97.19;97695.63;107557;1276;74563;-85
2023/11/21 11:23:59;;;;;;;3.00;2.20;;;;;;;8.94;97.01;97698.23;107298;1276;72873;-83
2023/11/21 11:27:08;;;;;;;3.70;2.50;;;;;;;8.92;97.61;97694.48;107268;1276;62075;-85
2023/11/21 11:29:38;;;;;;;1.20;1.10;;;;;;;8.87;97.64;97697.13;106457;1283;61795;-83
2023/11/21 11:32:42;;;;;;;1.60;1.30;;;;;;;8.84;97.61;97694.70;106590;1282;75860;-81